createdAt,value
2019-04-24T00:08:53.192Z,22.40
2019-04-24T00:22:10.422Z,22.40
2019-04-24T01:41:34.025Z,22.40
2019-04-24T01:54:57.559Z,22.40
2019-04-24T02:08:26.377Z,22.40
2019-04-24T02:21:41.999Z,22.40
2019-04-24T03:28:42.585Z,22.40
2019-04-24T03:54:44.021Z,22.40
2019-04-24T04:07:58.562Z,22.30
2019-04-24T04:47:41.975Z,22.30
2019-04-24T05:27:51.336Z,22.30
2019-04-24T05:41:19.466Z,22.10
2019-04-24T06:08:02.517Z,22.20
2019-04-24T07:00:52.595Z,22.40
2019-04-24T07:14:05.776Z,22.30
2019-04-24T07:27:39.988Z,22.30
2019-04-24T08:34:34.420Z,21.60
2019-04-24T08:47:25.721Z,22.00
2019-04-24T09:00:41.551Z,22.10
2019-04-24T09:13:52.866Z,22.20
2019-04-24T09:27:13.024Z,22.20
2019-04-24T09:41:08.614Z,22.30
2019-04-24T10:07:30.698Z,22.40
2019-04-24T10:20:29.013Z,22.40
2019-04-24T10:34:03.678Z,22.50
2019-04-24T10:47:43.694Z,22.50
2019-04-24T11:25:19.003Z,22.60
2019-04-24T11:38:31.101Z,22.60
2019-04-24T11:52:02.796Z,22.50
2019-04-24T12:18:44.481Z,22.60
2019-04-24T12:31:59.543Z,22.60
2019-04-24T12:45:26.715Z,22.60
2019-04-24T12:58:51.420Z,22.70
2019-04-24T13:12:19.639Z,22.70
2019-04-24T13:25:30.065Z,22.70
2019-04-24T13:39:37.885Z,22.90
2019-04-24T14:05:56.776Z,23.00
2019-04-24T14:19:19.792Z,23.20
2019-04-24T14:32:14.610Z,23.20
2019-04-24T14:45:54.493Z,23.20
2019-04-24T15:39:05.783Z,23.30
2019-04-24T15:51:39.420Z,23.20
2019-04-24T16:04:54.730Z,23.20
2019-04-24T16:18:18.639Z,23.20
2019-04-24T16:31:23.858Z,23.20
2019-04-24T16:44:50.660Z,23.20
2019-04-24T16:58:13.827Z,23.10
2019-04-24T17:24:49.226Z,23.20
2019-04-24T17:37:40.065Z,23.10
2019-04-24T18:11:14.154Z,23.20
2019-04-24T18:24:38.150Z,23.20
2019-04-24T18:38:06.670Z,23.00
2019-04-24T18:51:23.809Z,23.00
2019-04-24T19:04:46.541Z,23.00
2019-04-24T19:18:09.590Z,23.00
2019-04-24T19:31:32.460Z,23.00
2019-04-24T19:44:54.990Z,22.90
2019-04-24T19:58:18.214Z,22.90
2019-04-24T20:11:41.290Z,23.10
2019-04-24T20:25:05.658Z,23.10
2019-04-24T20:38:26.220Z,23.10
2019-04-24T20:51:49.066Z,23.10
2019-04-24T21:05:13.255Z,23.00
2019-04-24T21:18:34.691Z,23.00
2019-04-24T21:44:59.119Z,23.00
2019-04-24T21:58:06.282Z,23.00
2019-04-24T22:11:13.449Z,23.00
2019-04-24T22:24:21.233Z,23.00
2019-04-24T22:37:27.783Z,23.00
2019-04-24T22:50:34.906Z,23.00
2019-04-24T23:03:58.883Z,23.00
2019-04-24T23:17:22.312Z,23.00
2019-04-24T23:30:44.558Z,23.10
2019-04-24T23:44:07.389Z,23.10
2019-04-24T23:57:30.223Z,23.20
